sensor_id;sensor_type;location;lat;lon;timestamp;temperature;humidity
39371;DHT22;25099;51.946;4.838;2022-11-02T00:01:20;12.40;99.90
39371;DHT22;25099;51.946;4.838;2022-11-02T00:03:47;12.40;99.90
39371;DHT22;25099;51.946;4.838;2022-11-02T00:06:13;12.40;99.90
39371;DHT22;25099;51.946;4.838;2022-11-02T00:08:38;12.30;99.90
39371;DHT22;25099;51.946;4.838;2022-11-02T00:11:04;12.30;99.90
39371;DHT22;25099;51.946;4.838;2022-11-02T00:13:30;12.30;99.90
39371;DHT22;25099;51.946;4.838;2022-11-02T00:15:55;12.30;99.90
39371;DHT22;25099;51.946;4.838;2022-11-02T00:18:21;12.30;99.90
39371;DHT22;25099;51.946;4.838;2022-11-02T00:20:47;12.40;99.90
39371;DHT22;25099;51.946;4.838;2022-11-02T00:23:13;12.40;99.90
39371;DHT22;25099;51.946;4.838;2022-11-02T00:25:45;12.50;99.90
39371;DHT22;25099;51.946;4.838;2022-11-02T00:28:12;12.50;99.90
39371;DHT22;25099;51.946;4.838;2022-11-02T00:30:38;12.50;99.90
39371;DHT22;25099;51.946;4.838;2022-11-02T00:33:04;12.50;99.90
39371;DHT22;25099;51.946;4.838;2022-11-02T00:35:30;12.70;99.90
39371;DHT22;25099;51.946;4.838;2022-11-02T00:37:55;12.70;99.90
39371;DHT22;25099;51.946;4.838;2022-11-02T00:40:21;12.80;99.90
39371;DHT22;25099;51.946;4.838;2022-11-02T00:42:46;12.70;99.90
39371;DHT22;25099;51.946;4.838;2022-11-02T00:45:12;12.60;99.90
39371;DHT22;25099;51.946;4.838;2022-11-02T00:47:37;12.40;99.90
39371;DHT22;25099;51.946;4.838;2022-11-02T00:50:03;13.20;99.90
39371;DHT22;25099;51.946;4.838;2022-11-02T00:52:29;12.30;99.90
39371;DHT22;25099;51.946;4.838;2022-11-02T00:54:55;12.20;99.90
39371;DHT22;25099;51.946;4.838;2022-11-02T00:57:21;12.10;99.90
39371;DHT22;25099;51.946;4.838;2022-11-02T00:59:47;12.00;99.90
39371;DHT22;25099;51.946;4.838;2022-11-02T01:02:12;11.90;99.90
39371;DHT22;25099;51.946;4.838;2022-11-02T01:04:38;11.90;99.90
39371;DHT22;25099;51.946;4.838;2022-11-02T01:07:03;11.90;99.90
39371;DHT22;25099;51.946;4.838;2022-11-02T01:09:29;11.90;99.90
39371;DHT22;25099;51.946;4.838;2022-11-02T01:11:55;11.80;99.90
39371;DHT22;25099;51.946;4.838;2022-11-02T01:14:21;11.70;99.90
39371;DHT22;25099;51.946;4.838;2022-11-02T01:16:46;11.80;99.90
39371;DHT22;25099;51.946;4.838;2022-11-02T01:19:12;11.70;99.90
39371;DHT22;25099;51.946;4.838;2022-11-02T01:21:38;11.70;99.90
39371;DHT22;25099;51.946;4.838;2022-11-02T01:24:04;11.70;99.90
39371;DHT22;25099;51.946;4.838;2022-11-02T01:26:30;11.70;99.90
39371;DHT22;25099;51.946;4.838;2022-11-02T01:28:56;11.60;99.90
39371;DHT22;25099;51.946;4.838;2022-11-02T01:31:21;11.60;99.90
39371;DHT22;25099;51.946;4.838;2022-11-02T01:33:47;11.50;99.90
39371;DHT22;25099;51.946;4.838;2022-11-02T01:36:14;11.40;99.90
39371;DHT22;25099;51.946;4.838;2022-11-02T01:38:40;11.40;99.90
39371;DHT22;25099;51.946;4.838;2022-11-02T01:41:06;11.40;99.90
39371;DHT22;25099;51.946;4.838;2022-11-02T01:43:34;11.40;99.90
39371;DHT22;25099;51.946;4.838;2022-11-02T01:46:04;11.30;99.90
39371;DHT22;25099;51.946;4.838;2022-11-02T01:48:34;11.40;99.90
39371;DHT22;25099;51.946;4.838;2022-11-02T01:51:04;11.30;99.90
39371;DHT22;25099;51.946;4.838;2022-11-02T01:53:31;11.30;99.90
39371;DHT22;25099;51.946;4.838;2022-11-02T01:55:58;11.30;99.90
39371;DHT22;25099;51.946;4.838;2022-11-02T01:58:25;11.30;99.90
39371;DHT22;25099;51.946;4.838;2022-11-02T02:00:51;11.30;99.90
39371;DHT22;25099;51.946;4.838;2022-11-02T02:03:17;11.30;99.90
39371;DHT22;25099;51.946;4.838;2022-11-02T02:06:10;11.20;99.90
39371;DHT22;25099;51.946;4.838;2022-11-02T02:08:40;11.20;99.90
39371;DHT22;25099;51.946;4.838;2022-11-02T02:13:57;11.20;99.90
39371;DHT22;25099;51.946;4.838;2022-11-02T02:16:52;11.30;99.90
39371;DHT22;25099;51.946;4.838;2022-11-02T02:27:51;11.80;99.90
39371;DHT22;25099;51.946;4.838;2022-11-02T02:30:21;11.80;99.90
39371;DHT22;25099;51.946;4.838;2022-11-02T02:32:58;11.90;99.90
39371;DHT22;25099;51.946;4.838;2022-11-02T02:35:35;12.00;99.90
39371;DHT22;25099;51.946;4.838;2022-11-02T02:38:10;12.00;99.90
39371;DHT22;25099;51.946;4.838;2022-11-02T02:43:35;12.00;99.90
39371;DHT22;25099;51.946;4.838;2022-11-02T02:46:44;12.00;99.90
39371;DHT22;25099;51.946;4.838;2022-11-02T02:49:11;12.00;99.90
39371;DHT22;25099;51.946;4.838;2022-11-02T02:51:39;12.00;99.90
39371;DHT22;25099;51.946;4.838;2022-11-02T02:54:10;12.00;99.90
39371;DHT22;25099;51.946;4.838;2022-11-02T02:56:43;11.90;99.90
39371;DHT22;25099;51.946;4.838;2022-11-02T02:59:25;12.00;99.90
39371;DHT22;25099;51.946;4.838;2022-11-02T03:01:53;12.10;99.90
39371;DHT22;25099;51.946;4.838;2022-11-02T03:04:20;12.10;99.90
39371;DHT22;25099;51.946;4.838;2022-11-02T03:06:51;12.20;99.90
39371;DHT22;25099;51.946;4.838;2022-11-02T03:09:51;12.10;99.90
39371;DHT22;25099;51.946;4.838;2022-11-02T03:12:38;12.10;99.90
39371;DHT22;25099;51.946;4.838;2022-11-02T03:15:15;12.10;99.90
39371;DHT22;25099;51.946;4.838;2022-11-02T03:23:23;12.00;99.90
39371;DHT22;25099;51.946;4.838;2022-11-02T03:36:48;12.10;99.90
39371;DHT22;25099;51.946;4.838;2022-11-02T03:39:26;12.10;99.90
39371;DHT22;25099;51.946;4.838;2022-11-02T03:41:55;12.20;99.90
39371;DHT22;25099;51.946;4.838;2022-11-02T03:44:23;12.20;99.90
39371;DHT22;25099;51.946;4.838;2022-11-02T03:46:57;12.40;99.90
39371;DHT22;25099;51.946;4.838;2022-11-02T03:49:25;12.30;99.90
39371;DHT22;25099;51.946;4.838;2022-11-02T03:51:52;12.30;99.90
39371;DHT22;25099;51.946;4.838;2022-11-02T03:54:32;12.30;99.90
39371;DHT22;25099;51.946;4.838;2022-11-02T03:57:01;12.30;99.90
39371;DHT22;25099;51.946;4.838;2022-11-02T03:59:31;12.30;99.90
39371;DHT22;25099;51.946;4.838;2022-11-02T04:01:57;12.20;99.90
39371;DHT22;25099;51.946;4.838;2022-11-02T04:04:24;12.20;99.90
39371;DHT22;25099;51.946;4.838;2022-11-02T04:06:50;12.20;99.90
39371;DHT22;25099;51.946;4.838;2022-11-02T04:09:17;12.20;99.90
39371;DHT22;25099;51.946;4.838;2022-11-02T04:11:43;12.20;99.90
39371;DHT22;25099;51.946;4.838;2022-11-02T04:14:27;12.20;99.90
39371;DHT22;25099;51.946;4.838;2022-11-02T04:17:02;12.20;99.90
39371;DHT22;25099;51.946;4.838;2022-11-02T04:19:46;12.20;99.90
39371;DHT22;25099;51.946;4.838;2022-11-02T04:22:12;12.20;99.90
39371;DHT22;25099;51.946;4.838;2022-11-02T04:24:56;12.20;99.90
39371;DHT22;25099;51.946;4.838;2022-11-02T04:27:41;12.20;99.90
39371;DHT22;25099;51.946;4.838;2022-11-02T04:30:07;12.20;99.90
39371;DHT22;25099;51.946;4.838;2022-11-02T04:32:40;12.10;99.90
39371;DHT22;25099;51.946;4.838;2022-11-02T04:35:25;12.10;99.90
39371;DHT22;25099;51.946;4.838;2022-11-02T04:37:50;12.10;99.90
39371;DHT22;25099;51.946;4.838;2022-11-02T04:40:34;12.00;99.90
39371;DHT22;25099;51.946;4.838;2022-11-02T04:43:00;12.00;99.90
39371;DHT22;25099;51.946;4.838;2022-11-02T04:45:26;12.10;99.90
39371;DHT22;25099;51.946;4.838;2022-11-02T04:47:51;12.10;99.90
39371;DHT22;25099;51.946;4.838;2022-11-02T04:50:17;12.10;99.90
39371;DHT22;25099;51.946;4.838;2022-11-02T04:52:43;12.10;99.90
39371;DHT22;25099;51.946;4.838;2022-11-02T04:55:08;12.10;99.90
39371;DHT22;25099;51.946;4.838;2022-11-02T04:57:34;12.10;99.90
39371;DHT22;25099;51.946;4.838;2022-11-02T04:59:59;12.10;99.90
39371;DHT22;25099;51.946;4.838;2022-11-02T05:02:25;12.10;99.90
39371;DHT22;25099;51.946;4.838;2022-11-02T05:04:51;12.00;99.90
39371;DHT22;25099;51.946;4.838;2022-11-02T05:07:16;12.20;99.90
39371;DHT22;25099;51.946;4.838;2022-11-02T05:09:42;12.20;99.90
39371;DHT22;25099;51.946;4.838;2022-11-02T05:12:08;12.20;99.90
39371;DHT22;25099;51.946;4.838;2022-11-02T05:14:33;12.10;99.90
39371;DHT22;25099;51.946;4.838;2022-11-02T05:16:59;12.10;99.90
39371;DHT22;25099;51.946;4.838;2022-11-02T05:19:25;12.00;99.90
39371;DHT22;25099;51.946;4.838;2022-11-02T05:21:50;12.00;99.90
39371;DHT22;25099;51.946;4.838;2022-11-02T05:24:16;12.00;99.90
39371;DHT22;25099;51.946;4.838;2022-11-02T05:26:41;12.00;99.90
39371;DHT22;25099;51.946;4.838;2022-11-02T05:29:08;11.90;99.90
39371;DHT22;25099;51.946;4.838;2022-11-02T05:31:34;11.90;99.90
39371;DHT22;25099;51.946;4.838;2022-11-02T05:33:59;11.90;99.90
39371;DHT22;25099;51.946;4.838;2022-11-02T05:36:25;11.90;99.90
39371;DHT22;25099;51.946;4.838;2022-11-02T05:38:54;11.80;99.90
39371;DHT22;25099;51.946;4.838;2022-11-02T05:41:20;11.90;99.90
39371;DHT22;25099;51.946;4.838;2022-11-02T05:43:46;11.90;99.90
39371;DHT22;25099;51.946;4.838;2022-11-02T05:46:11;11.90;99.90
39371;DHT22;25099;51.946;4.838;2022-11-02T05:48:40;11.90;99.90
39371;DHT22;25099;51.946;4.838;2022-11-02T05:51:06;11.90;99.90
39371;DHT22;25099;51.946;4.838;2022-11-02T05:53:32;11.80;99.90
39371;DHT22;25099;51.946;4.838;2022-11-02T05:55:59;11.80;99.90
39371;DHT22;25099;51.946;4.838;2022-11-02T05:58:26;11.70;99.90
39371;DHT22;25099;51.946;4.838;2022-11-02T06:00:52;11.70;99.90
39371;DHT22;25099;51.946;4.838;2022-11-02T06:03:18;11.70;99.90
39371;DHT22;25099;51.946;4.838;2022-11-02T06:05:44;11.60;99.90
39371;DHT22;25099;51.946;4.838;2022-11-02T06:08:10;11.60;99.90
39371;DHT22;25099;51.946;4.838;2022-11-02T06:10:36;11.60;99.90
39371;DHT22;25099;51.946;4.838;2022-11-02T06:13:02;11.70;99.90
39371;DHT22;25099;51.946;4.838;2022-11-02T06:15:30;11.60;99.90
39371;DHT22;25099;51.946;4.838;2022-11-02T06:17:56;11.70;99.90
39371;DHT22;25099;51.946;4.838;2022-11-02T06:20:21;11.60;99.90
39371;DHT22;25099;51.946;4.838;2022-11-02T06:22:48;11.60;99.90
39371;DHT22;25099;51.946;4.838;2022-11-02T06:25:14;11.60;99.90
39371;DHT22;25099;51.946;4.838;2022-11-02T06:27:40;11.60;99.90
39371;DHT22;25099;51.946;4.838;2022-11-02T06:30:06;11.60;99.90
39371;DHT22;25099;51.946;4.838;2022-11-02T06:32:32;11.50;99.90
39371;DHT22;25099;51.946;4.838;2022-11-02T06:34:58;11.50;99.90
39371;DHT22;25099;51.946;4.838;2022-11-02T06:37:24;11.50;99.90
39371;DHT22;25099;51.946;4.838;2022-11-02T06:39:49;11.50;99.90
39371;DHT22;25099;51.946;4.838;2022-11-02T06:42:15;11.80;99.90
39371;DHT22;25099;51.946;4.838;2022-11-02T06:44:40;11.50;99.90
39371;DHT22;25099;51.946;4.838;2022-11-02T06:47:06;11.60;99.90
39371;DHT22;25099;51.946;4.838;2022-11-02T06:49:32;11.60;99.90
39371;DHT22;25099;51.946;4.838;2022-11-02T06:51:57;11.60;99.90
39371;DHT22;25099;51.946;4.838;2022-11-02T06:54:23;11.70;99.90
39371;DHT22;25099;51.946;4.838;2022-11-02T06:56:49;11.70;99.90
39371;DHT22;25099;51.946;4.838;2022-11-02T06:59:14;11.80;99.90
39371;DHT22;25099;51.946;4.838;2022-11-02T07:01:40;11.80;99.90
39371;DHT22;25099;51.946;4.838;2022-11-02T07:04:08;11.90;99.90
39371;DHT22;25099;51.946;4.838;2022-11-02T07:06:34;12.00;99.90
39371;DHT22;25099;51.946;4.838;2022-11-02T07:08:59;12.00;99.90
39371;DHT22;25099;51.946;4.838;2022-11-02T07:11:25;12.00;99.90
39371;DHT22;25099;51.946;4.838;2022-11-02T07:13:50;12.10;99.90
39371;DHT22;25099;51.946;4.838;2022-11-02T07:16:16;12.00;99.90
39371;DHT22;25099;51.946;4.838;2022-11-02T07:18:41;12.10;99.90
39371;DHT22;25099;51.946;4.838;2022-11-02T07:21:07;12.20;99.90
39371;DHT22;25099;51.946;4.838;2022-11-02T07:23:35;12.20;99.90
39371;DHT22;25099;51.946;4.838;2022-11-02T07:26:01;12.20;99.90
39371;DHT22;25099;51.946;4.838;2022-11-02T07:28:27;12.30;99.90
39371;DHT22;25099;51.946;4.838;2022-11-02T07:30:53;12.30;99.90
39371;DHT22;25099;51.946;4.838;2022-11-02T07:33:20;12.30;99.90
39371;DHT22;25099;51.946;4.838;2022-11-02T07:35:45;12.40;99.90
39371;DHT22;25099;51.946;4.838;2022-11-02T07:38:11;12.40;99.90
39371;DHT22;25099;51.946;4.838;2022-11-02T07:40:37;12.40;99.90
39371;DHT22;25099;51.946;4.838;2022-11-02T07:43:04;12.40;99.90
39371;DHT22;25099;51.946;4.838;2022-11-02T07:45:30;12.40;99.90
39371;DHT22;25099;51.946;4.838;2022-11-02T07:47:56;12.30;99.90
39371;DHT22;25099;51.946;4.838;2022-11-02T07:50:23;12.40;99.90
39371;DHT22;25099;51.946;4.838;2022-11-02T07:52:51;12.40;99.90
39371;DHT22;25099;51.946;4.838;2022-11-02T07:55:19;12.30;99.90
39371;DHT22;25099;51.946;4.838;2022-11-02T07:57:54;12.30;99.90
39371;DHT22;25099;51.946;4.838;2022-11-02T08:00:20;12.30;99.90
39371;DHT22;25099;51.946;4.838;2022-11-02T08:02:46;12.30;99.90
39371;DHT22;25099;51.946;4.838;2022-11-02T08:05:12;12.30;99.90
39371;DHT22;25099;51.946;4.838;2022-11-02T08:07:37;12.30;99.90
39371;DHT22;25099;51.946;4.838;2022-11-02T08:10:03;12.20;99.90
39371;DHT22;25099;51.946;4.838;2022-11-02T08:12:32;12.30;99.90
39371;DHT22;25099;51.946;4.838;2022-11-02T08:14:57;12.30;99.90
39371;DHT22;25099;51.946;4.838;2022-11-02T08:17:23;12.30;99.90
39371;DHT22;25099;51.946;4.838;2022-11-02T08:19:48;12.30;99.90
39371;DHT22;25099;51.946;4.838;2022-11-02T08:22:14;13.00;99.90
39371;DHT22;25099;51.946;4.838;2022-11-02T08:24:40;12.30;99.90
39371;DHT22;25099;51.946;4.838;2022-11-02T08:27:05;12.20;99.90
39371;DHT22;25099;51.946;4.838;2022-11-02T08:29:34;12.20;99.90
39371;DHT22;25099;51.946;4.838;2022-11-02T08:32:01;12.20;99.90
39371;DHT22;25099;51.946;4.838;2022-11-02T08:34:27;12.30;99.90
39371;DHT22;25099;51.946;4.838;2022-11-02T08:36:52;12.20;99.90
39371;DHT22;25099;51.946;4.838;2022-11-02T08:39:18;12.20;99.90
39371;DHT22;25099;51.946;4.838;2022-11-02T08:41:43;12.30;99.90
39371;DHT22;25099;51.946;4.838;2022-11-02T08:44:09;12.20;99.90
39371;DHT22;25099;51.946;4.838;2022-11-02T08:46:35;12.20;99.90
39371;DHT22;25099;51.946;4.838;2022-11-02T08:49:00;12.30;99.90
39371;DHT22;25099;51.946;4.838;2022-11-02T08:51:26;12.20;99.90
39371;DHT22;25099;51.946;4.838;2022-11-02T08:53:52;12.30;99.90
39371;DHT22;25099;51.946;4.838;2022-11-02T08:56:18;12.40;99.90
39371;DHT22;25099;51.946;4.838;2022-11-02T08:58:43;12.40;99.90
39371;DHT22;25099;51.946;4.838;2022-11-02T09:01:09;12.40;99.90
39371;DHT22;25099;51.946;4.838;2022-11-02T09:03:34;12.40;99.90
39371;DHT22;25099;51.946;4.838;2022-11-02T09:06:01;12.50;99.90
39371;DHT22;25099;51.946;4.838;2022-11-02T09:08:27;12.50;99.90
39371;DHT22;25099;51.946;4.838;2022-11-02T09:10:57;12.50;99.90
39371;DHT22;25099;51.946;4.838;2022-11-02T09:13:23;12.50;99.90
39371;DHT22;25099;51.946;4.838;2022-11-02T09:15:54;12.60;99.90
39371;DHT22;25099;51.946;4.838;2022-11-02T09:18:23;12.60;99.90
39371;DHT22;25099;51.946;4.838;2022-11-02T09:20:49;12.70;99.90
39371;DHT22;25099;51.946;4.838;2022-11-02T09:23:16;12.80;99.90
39371;DHT22;25099;51.946;4.838;2022-11-02T09:25:42;12.90;99.90
39371;DHT22;25099;51.946;4.838;2022-11-02T09:28:08;13.00;99.90
39371;DHT22;25099;51.946;4.838;2022-11-02T09:30:34;13.00;99.90
39371;DHT22;25099;51.946;4.838;2022-11-02T09:33:01;13.00;99.90
39371;DHT22;25099;51.946;4.838;2022-11-02T09:35:29;13.00;99.90
39371;DHT22;25099;51.946;4.838;2022-11-02T09:37:55;13.10;99.90
39371;DHT22;25099;51.946;4.838;2022-11-02T09:40:23;13.10;99.90
39371;DHT22;25099;51.946;4.838;2022-11-02T09:42:55;13.10;99.90
39371;DHT22;25099;51.946;4.838;2022-11-02T09:45:23;13.20;99.90
39371;DHT22;25099;51.946;4.838;2022-11-02T09:47:56;13.20;99.90
39371;DHT22;25099;51.946;4.838;2022-11-02T09:50:28;13.30;99.90
39371;DHT22;25099;51.946;4.838;2022-11-02T09:53:01;13.40;99.90
39371;DHT22;25099;51.946;4.838;2022-11-02T09:55:32;13.40;99.90
39371;DHT22;25099;51.946;4.838;2022-11-02T09:58:05;13.50;99.90
39371;DHT22;25099;51.946;4.838;2022-11-02T10:00:35;13.60;99.90
39371;DHT22;25099;51.946;4.838;2022-11-02T10:06:20;13.70;99.90
39371;DHT22;25099;51.946;4.838;2022-11-02T10:09:02;13.80;99.90
39371;DHT22;25099;51.946;4.838;2022-11-02T10:11:59;13.80;99.90
39371;DHT22;25099;51.946;4.838;2022-11-02T10:14:30;13.80;99.90
39371;DHT22;25099;51.946;4.838;2022-11-02T10:19:28;13.80;99.90
39371;DHT22;25099;51.946;4.838;2022-11-02T10:21:57;13.70;99.90
39371;DHT22;25099;51.946;4.838;2022-11-02T10:24:30;13.70;99.90
39371;DHT22;25099;51.946;4.838;2022-11-02T10:27:02;13.70;99.90
39371;DHT22;25099;51.946;4.838;2022-11-02T10:32:16;13.60;99.90
39371;DHT22;25099;51.946;4.838;2022-11-02T10:34:43;13.60;99.90
39371;DHT22;25099;51.946;4.838;2022-11-02T10:37:26;13.60;99.90
39371;DHT22;25099;51.946;4.838;2022-11-02T10:46:31;13.60;99.90
39371;DHT22;25099;51.946;4.838;2022-11-02T10:49:04;13.70;99.90
39371;DHT22;25099;51.946;4.838;2022-11-02T10:51:34;13.70;99.90
39371;DHT22;25099;51.946;4.838;2022-11-02T10:54:10;13.70;99.90
39371;DHT22;25099;51.946;4.838;2022-11-02T10:56:36;13.70;99.90
39371;DHT22;25099;51.946;4.838;2022-11-02T11:01:35;13.70;99.90
39371;DHT22;25099;51.946;4.838;2022-11-02T11:04:04;13.80;99.90
39371;DHT22;25099;51.946;4.838;2022-11-02T11:06:36;13.80;99.90
39371;DHT22;25099;51.946;4.838;2022-11-02T11:09:15;13.90;99.90
39371;DHT22;25099;51.946;4.838;2022-11-02T11:11:58;13.90;99.90
39371;DHT22;25099;51.946;4.838;2022-11-02T11:14:26;14.00;99.90
39371;DHT22;25099;51.946;4.838;2022-11-02T11:16:59;14.00;99.90
39371;DHT22;25099;51.946;4.838;2022-11-02T11:19:32;14.00;99.90
39371;DHT22;25099;51.946;4.838;2022-11-02T11:21:59;14.00;99.90
39371;DHT22;25099;51.946;4.838;2022-11-02T11:24:34;14.00;99.90
39371;DHT22;25099;51.946;4.838;2022-11-02T11:29:54;14.00;99.90
39371;DHT22;25099;51.946;4.838;2022-11-02T11:32:27;14.10;99.90
39371;DHT22;25099;51.946;4.838;2022-11-02T11:35:02;14.10;99.90
39371;DHT22;25099;51.946;4.838;2022-11-02T11:37:29;14.10;99.90
39371;DHT22;25099;51.946;4.838;2022-11-02T11:40:22;14.10;99.90
39371;DHT22;25099;51.946;4.838;2022-11-02T11:42:53;14.20;99.90
39371;DHT22;25099;51.946;4.838;2022-11-02T11:45:22;14.20;99.90
39371;DHT22;25099;51.946;4.838;2022-11-02T11:48:23;14.30;99.90
39371;DHT22;25099;51.946;4.838;2022-11-02T11:50:50;14.40;99.90
39371;DHT22;25099;51.946;4.838;2022-11-02T11:53:24;14.40;99.90
39371;DHT22;25099;51.946;4.838;2022-11-02T11:55:51;14.40;99.90
39371;DHT22;25099;51.946;4.838;2022-11-02T11:58:29;14.40;99.90
39371;DHT22;25099;51.946;4.838;2022-11-02T12:03:58;14.50;99.90
39371;DHT22;25099;51.946;4.838;2022-11-02T12:06:48;14.50;99.90
39371;DHT22;25099;51.946;4.838;2022-11-02T12:21:00;14.70;99.90
39371;DHT22;25099;51.946;4.838;2022-11-02T12:23:46;14.70;99.90
39371;DHT22;25099;51.946;4.838;2022-11-02T12:29:19;14.70;99.90
39371;DHT22;25099;51.946;4.838;2022-11-02T12:31:54;14.90;99.90
39371;DHT22;25099;51.946;4.838;2022-11-02T12:40:17;14.90;99.90
39371;DHT22;25099;51.946;4.838;2022-11-02T12:48:24;15.00;99.90
39371;DHT22;25099;51.946;4.838;2022-11-02T12:51:01;14.90;99.90
39371;DHT22;25099;51.946;4.838;2022-11-02T12:53:34;14.80;99.90
39371;DHT22;25099;51.946;4.838;2022-11-02T12:56:04;14.80;99.90
39371;DHT22;25099;51.946;4.838;2022-11-02T12:58:36;14.90;99.90
39371;DHT22;25099;51.946;4.838;2022-11-02T13:01:29;15.00;99.90
39371;DHT22;25099;51.946;4.838;2022-11-02T13:06:45;15.20;99.90
39371;DHT22;25099;51.946;4.838;2022-11-02T13:09:30;15.30;99.90
39371;DHT22;25099;51.946;4.838;2022-11-02T13:12:13;15.30;99.90
39371;DHT22;25099;51.946;4.838;2022-11-02T13:14:45;15.20;99.90
39371;DHT22;25099;51.946;4.838;2022-11-02T13:17:44;15.30;99.90
39371;DHT22;25099;51.946;4.838;2022-11-02T13:20:26;15.30;99.90
39371;DHT22;25099;51.946;4.838;2022-11-02T13:23:11;15.40;99.90
39371;DHT22;25099;51.946;4.838;2022-11-02T13:25:43;15.30;99.90
39371;DHT22;25099;51.946;4.838;2022-11-02T13:28:19;15.20;99.90
39371;DHT22;25099;51.946;4.838;2022-11-02T13:30:49;15.10;99.90
39371;DHT22;25099;51.946;4.838;2022-11-02T13:33:33;15.10;99.90
39371;DHT22;25099;51.946;4.838;2022-11-02T13:36:01;15.20;99.90
39371;DHT22;25099;51.946;4.838;2022-11-02T13:38:34;15.20;99.90
39371;DHT22;25099;51.946;4.838;2022-11-02T13:49:25;15.50;99.90
39371;DHT22;25099;51.946;4.838;2022-11-02T13:54:48;15.50;99.90
39371;DHT22;25099;51.946;4.838;2022-11-02T13:59:50;15.40;99.90
39371;DHT22;25099;51.946;4.838;2022-11-02T14:02:18;15.40;99.90
39371;DHT22;25099;51.946;4.838;2022-11-02T14:04:45;15.40;99.90
39371;DHT22;25099;51.946;4.838;2022-11-02T14:07:23;15.40;99.90
39371;DHT22;25099;51.946;4.838;2022-11-02T14:09:56;15.30;99.90
39371;DHT22;25099;51.946;4.838;2022-11-02T14:20:39;15.60;99.90
39371;DHT22;25099;51.946;4.838;2022-11-02T14:30:48;15.20;99.90
39371;DHT22;25099;51.946;4.838;2022-11-02T14:39:01;15.30;99.90
39371;DHT22;25099;51.946;4.838;2022-11-02T14:44:42;15.10;99.90
39371;DHT22;25099;51.946;4.838;2022-11-02T14:47:16;15.10;99.90
39371;DHT22;25099;51.946;4.838;2022-11-02T14:49:51;15.10;99.90
39371;DHT22;25099;51.946;4.838;2022-11-02T14:52:26;15.00;99.90
39371;DHT22;25099;51.946;4.838;2022-11-02T14:55:23;15.00;99.90
39371;DHT22;25099;51.946;4.838;2022-11-02T14:58:01;14.90;99.90
39371;DHT22;25099;51.946;4.838;2022-11-02T15:00:57;14.80;99.90
39371;DHT22;25099;51.946;4.838;2022-11-02T15:06:21;14.50;99.90
39371;DHT22;25099;51.946;4.838;2022-11-02T15:09:02;14.30;99.90
39371;DHT22;25099;51.946;4.838;2022-11-02T15:11:56;14.20;99.90
39371;DHT22;25099;51.946;4.838;2022-11-02T15:16:57;14.00;99.90
39371;DHT22;25099;51.946;4.838;2022-11-02T15:19:47;14.00;99.90
39371;DHT22;25099;51.946;4.838;2022-11-02T15:22:47;13.90;99.90
39371;DHT22;25099;51.946;4.838;2022-11-02T15:25:25;13.70;99.90
39371;DHT22;25099;51.946;4.838;2022-11-02T15:27:55;13.70;99.90
39371;DHT22;25099;51.946;4.838;2022-11-02T15:30:22;13.60;99.90
39371;DHT22;25099;51.946;4.838;2022-11-02T15:33:01;13.60;99.90
39371;DHT22;25099;51.946;4.838;2022-11-02T15:35:33;13.50;99.90
39371;DHT22;25099;51.946;4.838;2022-11-02T15:38:02;13.40;99.90
39371;DHT22;25099;51.946;4.838;2022-11-02T15:40:45;13.40;99.90
39371;DHT22;25099;51.946;4.838;2022-11-02T15:43:45;13.30;99.90
39371;DHT22;25099;51.946;4.838;2022-11-02T15:49:10;13.20;99.90
39371;DHT22;25099;51.946;4.838;2022-11-02T15:54:51;13.10;99.90
39371;DHT22;25099;51.946;4.838;2022-11-02T16:00:20;12.90;99.90
39371;DHT22;25099;51.946;4.838;2022-11-02T16:03:05;12.80;99.90
39371;DHT22;25099;51.946;4.838;2022-11-02T16:05:42;12.90;99.90
39371;DHT22;25099;51.946;4.838;2022-11-02T16:08:31;12.80;99.90
39371;DHT22;25099;51.946;4.838;2022-11-02T16:11:08;12.70;99.90
39371;DHT22;25099;51.946;4.838;2022-11-02T16:13:34;12.70;99.90
39371;DHT22;25099;51.946;4.838;2022-11-02T16:16:06;13.00;99.90
39371;DHT22;25099;51.946;4.838;2022-11-02T16:18:37;12.70;99.90
39371;DHT22;25099;51.946;4.838;2022-11-02T16:21:03;12.70;99.90
39371;DHT22;25099;51.946;4.838;2022-11-02T16:23:38;12.60;99.90
39371;DHT22;25099;51.946;4.838;2022-11-02T16:26:05;12.70;99.90
39371;DHT22;25099;51.946;4.838;2022-11-02T16:28:35;12.70;99.90
39371;DHT22;25099;51.946;4.838;2022-11-02T16:31:16;12.60;99.90
39371;DHT22;25099;51.946;4.838;2022-11-02T16:36:14;12.50;99.90
39371;DHT22;25099;51.946;4.838;2022-11-02T16:39:12;12.50;99.90
39371;DHT22;25099;51.946;4.838;2022-11-02T16:41:32;12.50;99.90
39371;DHT22;25099;51.946;4.838;2022-11-02T16:44:08;12.50;99.90
39371;DHT22;25099;51.946;4.838;2022-11-02T16:49:33;12.50;99.90
39371;DHT22;25099;51.946;4.838;2022-11-02T16:52:30;12.40;99.90
39371;DHT22;25099;51.946;4.838;2022-11-02T16:54:56;12.40;99.90
39371;DHT22;25099;51.946;4.838;2022-11-02T16:57:40;12.30;99.90
39371;DHT22;25099;51.946;4.838;2022-11-02T17:00:17;12.30;99.90
39371;DHT22;25099;51.946;4.838;2022-11-02T17:02:43;12.30;99.90
39371;DHT22;25099;51.946;4.838;2022-11-02T17:05:22;12.30;99.90
39371;DHT22;25099;51.946;4.838;2022-11-02T17:08:01;12.20;99.90
39371;DHT22;25099;51.946;4.838;2022-11-02T17:10:29;12.20;99.90
39371;DHT22;25099;51.946;4.838;2022-11-02T17:12:56;12.10;99.90
39371;DHT22;25099;51.946;4.838;2022-11-02T17:15:27;12.10;99.90
39371;DHT22;25099;51.946;4.838;2022-11-02T17:20:34;12.10;99.90
39371;DHT22;25099;51.946;4.838;2022-11-02T17:23:04;12.20;99.90
39371;DHT22;25099;51.946;4.838;2022-11-02T17:25:35;12.10;99.90
39371;DHT22;25099;51.946;4.838;2022-11-02T17:28:04;12.00;99.90
39371;DHT22;25099;51.946;4.838;2022-11-02T17:30:48;12.00;99.90
39371;DHT22;25099;51.946;4.838;2022-11-02T17:33:22;12.00;99.90
39371;DHT22;25099;51.946;4.838;2022-11-02T17:35:50;12.00;99.90
39371;DHT22;25099;51.946;4.838;2022-11-02T17:38:18;12.10;99.90
39371;DHT22;25099;51.946;4.838;2022-11-02T17:40:44;12.10;99.90
39371;DHT22;25099;51.946;4.838;2022-11-02T17:43:10;12.10;99.90
39371;DHT22;25099;51.946;4.838;2022-11-02T17:45:36;12.20;99.90
39371;DHT22;25099;51.946;4.838;2022-11-02T17:48:04;12.20;99.90
39371;DHT22;25099;51.946;4.838;2022-11-02T17:50:31;12.20;99.90
39371;DHT22;25099;51.946;4.838;2022-11-02T17:52:58;12.20;99.90
39371;DHT22;25099;51.946;4.838;2022-11-02T17:55:26;12.30;99.90
39371;DHT22;25099;51.946;4.838;2022-11-02T17:57:53;12.20;99.90
39371;DHT22;25099;51.946;4.838;2022-11-02T18:00:19;12.20;99.90
39371;DHT22;25099;51.946;4.838;2022-11-02T18:02:50;12.20;99.90
39371;DHT22;25099;51.946;4.838;2022-11-02T18:05:27;12.20;99.90
39371;DHT22;25099;51.946;4.838;2022-11-02T18:07:53;12.20;99.90
39371;DHT22;25099;51.946;4.838;2022-11-02T18:10:21;12.20;99.90
39371;DHT22;25099;51.946;4.838;2022-11-02T18:12:48;12.20;99.90
39371;DHT22;25099;51.946;4.838;2022-11-02T18:15:19;12.20;99.90